Time;durP1;ratioP1;P1;durP2;ratioP2;P2;SDS_P1;SDS_P2;PMS_P1;PMS_P2;Temp;Humidity;BMP_temperature;BMP_pressure;BME280_temperature;BME280_humidity;BME280_pressure;Samples;Min_cycle;Max_cycle;Signal;HPM_P1;HPM_P2
2022/08/27 00:02:08;;;;;;;;;3.75;3.75;;;;;25.95;40.53;101185.84;5034825;28;45508;-57
2022/08/27 00:04:34;;;;;;;;;4.00;3.00;;;;;25.94;40.35;101187.63;5034684;28;46878;-57
2022/08/27 00:07:00;;;;;;;;;6.00;4.00;;;;;25.93;40.74;101188.56;5035145;28;45428;-58
2022/08/27 00:09:26;;;;;;;;;3.25;3.00;;;;;25.92;41.02;101187.75;5033983;28;45271;-57
2022/08/27 00:11:52;;;;;;;;;4.00;3.00;;;;;25.92;40.53;101182.44;5035155;28;45327;-58
2022/08/27 00:14:17;;;;;;;;;2.75;2.00;;;;;25.93;40.96;101180.59;5035721;28;46147;-58
2022/08/27 00:16:43;;;;;;;;;3.00;3.00;;;;;25.92;40.98;101177.13;5033894;28;45374;-58
2022/08/27 00:19:08;;;;;;;;;3.25;2.75;;;;;25.92;40.81;101182.44;5034986;28;45306;-58
2022/08/27 00:21:34;;;;;;;;;5.00;3.00;;;;;25.92;40.72;101176.25;5034774;28;45497;-58
2022/08/27 00:23:59;;;;;;;;;3.75;3.75;;;;;25.93;40.88;101181.47;5034045;28;45366;-58
2022/08/27 00:26:25;;;;;;;;;4.25;3.50;;;;;25.93;40.49;101181.47;5034640;28;45429;-57
2022/08/27 00:28:50;;;;;;;;;3.00;3.00;;;;;25.94;40.86;101182.31;5034655;28;45276;-57
2022/08/27 00:31:16;;;;;;;;;3.00;3.00;;;;;25.92;40.73;101177.13;5035044;28;45516;-58
2022/08/27 00:33:42;;;;;;;;;3.25;2.00;;;;;25.93;40.83;101181.47;5034216;28;45347;-58
2022/08/27 00:36:09;;;;;;;;;3.00;3.00;;;;;25.94;40.90;101182.31;5034025;28;45429;-58
2022/08/27 00:38:37;;;;;;;;;3.25;3.00;;;;;25.93;40.74;101177.97;5033892;28;45390;-58
2022/08/27 00:41:04;;;;;;;;;3.00;3.00;;;;;25.94;40.83;101187.63;5034699;28;45577;-58
2022/08/27 00:43:41;;;;;;;;;3.00;3.00;;;;;25.93;40.54;101189.44;5034130;28;46472;-58
2022/08/27 00:46:14;;;;;;;;;3.00;3.00;;;;;25.93;41.08;101185.91;5033632;28;45374;-58
2022/08/27 00:48:40;;;;;;;;;4.00;3.00;;;;;25.92;40.61;101187.75;5034365;28;45237;-57
2022/08/27 00:51:05;;;;;;;;;3.00;2.00;;;;;25.92;40.96;101179.78;5034420;28;45455;-57
2022/08/27 00:53:33;;;;;;;;;2.25;2.00;;;;;25.92;41.29;101189.53;5031999;28;45467;-57
2022/08/27 00:56:11;;;;;;;;;3.75;3.75;;;;;25.90;40.83;101179.03;5034090;28;45819;-58
2022/08/27 00:58:40;;;;;;;;;2.00;2.00;;;;;25.90;40.58;101173.72;5034038;28;45244;-58
2022/08/27 01:01:09;;;;;;;;;3.00;3.00;;;;;25.90;41.10;101173.72;5032194;28;45355;-58
2022/08/27 01:03:35;;;;;;;;;2.50;2.50;;;;;25.90;40.64;101171.06;5033669;28;46412;-58
2022/08/27 01:06:03;;;;;;;;;4.00;4.00;;;;;25.90;40.70;101176.38;5032874;28;45877;-58
2022/08/27 01:08:32;;;;;;;;;3.00;3.00;;;;;25.90;41.31;101172.91;5033101;28;46019;-58
2022/08/27 01:10:59;;;;;;;;;3.00;3.00;;;;;25.91;41.04;101178.06;5034130;28;45502;-59
2022/08/27 01:13:28;;;;;;;;;3.25;3.00;;;;;25.90;41.31;101178.19;5033668;28;46245;-59
2022/08/27 01:15:57;;;;;;;;;3.25;3.25;;;;;25.90;40.93;101184.34;5033189;28;45729;-58
2022/08/27 01:18:31;;;;;;;;;3.00;3.00;;;;;25.89;41.14;101182.66;5033996;28;45332;-57
2022/08/27 01:21:22;;;;;;;;;1.75;1.75;;;;;25.89;41.02;101177.34;5034237;28;45613;-58
2022/08/27 01:24:00;;;;;;;;;4.00;2.75;;;;;25.89;41.11;101182.66;5033950;28;46269;-57
2022/08/27 01:26:26;;;;;;;;;3.75;3.00;;;;;25.88;40.82;101175.63;5033614;28;45408;-57
2022/08/27 01:28:52;;;;;;;;;3.50;2.50;;;;;25.88;41.23;101175.63;5033915;28;45398;-57
2022/08/27 01:31:18;;;;;;;;;3.50;3.50;;;;;25.88;41.21;101174.81;5034056;28;45481;-58
2022/08/27 01:33:55;;;;;;;;;2.75;2.75;;;;;25.88;40.76;101178.28;5033358;28;45413;-58
2022/08/27 01:36:20;;;;;;;;;4.00;2.00;;;;;25.88;41.55;101169.50;5033836;28;45809;-57
2022/08/27 01:38:45;;;;;;;;;4.00;3.50;;;;;25.87;41.02;101173.09;5033967;28;45430;-58
2022/08/27 01:41:11;;;;;;;;;3.00;3.00;;;;;25.85;40.71;101165.22;5032915;28;45613;-57
2022/08/27 01:43:36;;;;;;;;;4.50;3.25;;;;;25.84;41.44;101168.88;5033105;28;46419;-58
2022/08/27 01:46:02;;;;;;;;;4.00;3.00;;;;;25.85;41.08;101164.41;5032841;28;45410;-58
2022/08/27 01:48:27;;;;;;;;;4.00;4.00;;;;;25.84;41.29;101162.69;5033485;28;45244;-57
2022/08/27 01:50:52;;;;;;;;;3.00;3.00;;;;;25.83;40.83;101167.19;5033765;28;45354;-58
2022/08/27 01:53:22;;;;;;;;;5.25;3.00;;;;;25.83;41.22;101156.56;5033293;28;45271;-58
2022/08/27 01:55:50;;;;;;;;;4.25;3.00;;;;;25.82;41.14;101162.81;5034116;28;45367;-58
2022/08/27 01:58:18;;;;;;;;;3.50;3.50;;;;;25.82;41.01;101152.19;5034314;28;45364;-58
2022/08/27 02:00:47;;;;;;;;;4.00;4.00;;;;;25.83;41.48;101156.56;5032481;28;45335;-57
2022/08/27 02:03:17;;;;;;;;;4.00;4.00;;;;;25.83;41.10;101155.69;5033109;28;46214;-57
2022/08/27 02:05:43;;;;;;;;;4.00;3.75;;;;;25.82;41.30;101154.84;5032835;28;45225;-57
2022/08/27 02:08:10;;;;;;;;;5.25;3.25;;;;;25.82;41.14;101160.16;5032324;28;45427;-57
2022/08/27 02:10:38;;;;;;;;;4.75;3.75;;;;;25.81;40.81;101158.47;5033190;28;45249;-57
2022/08/27 02:13:05;;;;;;;;;5.25;3.00;;;;;25.82;40.91;101162.81;5033032;28;45632;-57
2022/08/27 02:15:33;;;;;;;;;3.75;3.75;;;;;25.82;41.15;101161.97;5032160;28;45263;-57
2022/08/27 02:17:58;;;;;;;;;3.00;3.00;;;;;25.82;40.90;101164.63;5031807;28;45416;-57
2022/08/27 02:20:23;;;;;;;;;3.25;3.25;;;;;25.81;41.23;101158.47;5032957;28;45359;-57
2022/08/27 02:22:49;;;;;;;;;3.25;3.25;;;;;25.80;41.27;101162.09;5032757;28;47298;-57
2022/08/27 02:25:18;;;;;;;;;5.50;3.00;;;;;25.80;40.78;101164.75;5032995;28;45358;-57
2022/08/27 02:27:43;;;;;;;;;3.00;3.00;;;;;25.79;40.74;101160.38;5032704;28;45403;-56
2022/08/27 02:30:12;;;;;;;;;3.25;3.25;;;;;25.80;41.43;101163.91;5032518;28;45478;-57
2022/08/27 02:32:37;;;;;;;;;2.75;2.75;;;;;25.78;41.43;101164.00;5032455;28;46101;-57
2022/08/27 02:35:04;;;;;;;;;4.00;2.75;;;;;25.78;41.47;101164.00;5032663;28;45279;-57
2022/08/27 02:37:30;;;;;;;;;1.00;1.00;;;;;25.78;41.54;101164.88;5032039;28;45450;-57
2022/08/27 02:39:55;;;;;;;;;5.00;3.25;;;;;25.78;40.91;101158.69;5033007;28;45619;-57
2022/08/27 02:42:21;;;;;;;;;4.75;3.00;;;;;25.77;41.38;101160.50;5032335;28;45417;-56
2022/08/27 02:44:47;;;;;;;;;5.00;3.25;;;;;25.79;41.30;101157.72;5032657;28;45405;-57
2022/08/27 02:47:13;;;;;;;;;4.50;3.25;;;;;25.79;40.90;101160.38;5031455;28;45250;-57
2022/08/27 02:49:39;;;;;;;;;3.50;3.00;;;;;25.78;41.25;101154.25;5031139;28;45345;-57
2022/08/27 02:52:04;;;;;;;;;4.00;3.00;;;;;25.78;41.16;101153.38;5033107;28;46334;-57
2022/08/27 02:54:30;;;;;;;;;3.25;3.00;;;;;25.78;41.37;101148.06;5035991;28;45750;-57
2022/08/27 02:56:55;;;;;;;;;3.00;3.00;;;;;25.77;41.14;101155.19;5036217;28;45425;-57
2022/08/27 02:59:21;;;;;;;;;4.00;3.00;;;;;25.76;41.59;101149.97;5035509;28;45435;-57
2022/08/27 03:01:47;;;;;;;;;3.50;1.50;;;;;25.76;41.27;101149.97;5035523;28;47988;-58
2022/08/27 03:04:13;;;;;;;;;2.75;2.75;;;;;25.77;41.66;101157.00;5035915;28;45343;-58
2022/08/27 03:06:39;;;;;;;;;5.50;4.00;;;;;25.76;41.14;101147.31;5034937;28;45181;-57
2022/08/27 03:09:04;;;;;;;;;4.00;3.00;;;;;25.75;41.21;101145.63;5036489;28;45660;-58
2022/08/27 03:11:31;;;;;;;;;3.00;3.00;;;;;25.73;41.43;101145.75;5035622;28;45916;-57
2022/08/27 03:14:00;;;;;;;;;5.00;3.00;;;;;25.73;41.03;101151.06;5035183;28;45834;-57
2022/08/27 03:16:25;;;;;;;;;4.00;4.00;;;;;25.73;41.44;101145.75;5035801;28;45320;-57
2022/08/27 03:18:51;;;;;;;;;5.00;5.00;;;;;25.73;41.66;101144.91;5035920;28;45414;-57
2022/08/27 03:21:23;;;;;;;;;5.00;4.00;;;;;25.72;41.09;101148.53;5035849;28;46943;-58
2022/08/27 03:23:49;;;;;;;;;8.25;3.25;;;;;25.73;41.15;101147.56;5036298;28;45394;-57
2022/08/27 03:26:16;;;;;;;;;3.75;3.75;;;;;25.71;41.27;101141.53;5036462;28;45336;-55
2022/08/27 03:28:42;;;;;;;;;4.00;3.00;;;;;25.70;41.08;101139.81;5035327;28;45268;-58
2022/08/27 03:31:14;;;;;;;;;4.00;4.00;;;;;25.62;41.07;101146.53;5035600;28;45300;-58
2022/08/27 03:33:40;;;;;;;;;4.00;4.00;;;;;25.55;41.66;101136.47;5035571;28;45312;-58
2022/08/27 03:36:07;;;;;;;;;4.00;3.00;;;;;25.47;41.45;101137.03;5033838;28;45360;-58
2022/08/27 03:38:34;;;;;;;;;4.50;3.00;;;;;25.38;41.45;101135.00;5035655;28;45346;-58
2022/08/27 03:41:00;;;;;;;;;3.00;3.00;;;;;25.32;41.22;101139.78;5035775;28;47055;-58
2022/08/27 03:43:26;;;;;;;;;3.00;3.00;;;;;25.26;41.81;101137.56;5034583;28;45806;-58
2022/08/27 03:45:52;;;;;;;;;4.25;4.00;;;;;25.18;41.97;101137.28;5035381;28;45295;-58
2022/08/27 03:48:18;;;;;;;;;3.00;3.00;;;;;25.13;42.19;101134.94;5036684;28;45573;-58
2022/08/27 03:50:45;;;;;;;;;3.00;3.00;;;;;25.08;41.75;101130.94;5034266;28;45955;-59
2022/08/27 03:53:13;;;;;;;;;3.00;3.00;;;;;25.04;42.06;101134.75;5035419;28;45633;-58
2022/08/27 03:55:39;;;;;;;;;5.00;3.00;;;;;24.99;42.29;101135.06;5035248;28;45211;-58
2022/08/27 03:58:05;;;;;;;;;4.00;3.00;;;;;24.96;42.29;101130.84;5035124;28;45240;-59
2022/08/27 04:00:30;;;;;;;;;3.75;3.00;;;;;24.96;42.01;101132.63;5033657;28;47329;-59
2022/08/27 04:02:55;;;;;;;;;3.00;3.00;;;;;24.92;42.30;101134.66;5035042;28;45345;-58
2022/08/27 04:05:21;;;;;;;;;3.00;3.00;;;;;24.89;42.48;101129.53;5034051;28;45526;-58
2022/08/27 04:07:48;;;;;;;;;2.75;2.75;;;;;24.86;42.59;101132.41;5036219;28;45477;-59
2022/08/27 04:10:15;;;;;;;;;4.50;3.00;;;;;24.83;41.90;101130.81;5035118;28;46725;-58
2022/08/27 04:12:41;;;;;;;;;2.00;2.00;;;;;24.80;42.29;101130.19;5034346;28;45340;-58
2022/08/27 04:15:09;;;;;;;;;4.75;3.00;;;;;24.75;42.26;101127.84;5035113;28;45236;-58
2022/08/27 04:17:35;;;;;;;;;2.25;2.00;;;;;24.70;42.22;101130.81;5035060;28;45607;-58
2022/08/27 04:20:01;;;;;;;;;2.00;2.00;;;;;24.67;42.18;101125.69;5034200;28;46014;-59
2022/08/27 04:22:26;;;;;;;;;2.25;2.25;;;;;24.66;42.27;101124.00;5034611;28;45430;-58
2022/08/27 04:24:53;;;;;;;;;4.00;2.50;;;;;24.64;42.70;101125.91;5034889;28;45351;-58
2022/08/27 04:27:19;;;;;;;;;3.00;3.00;;;;;24.61;42.85;101128.78;5035416;28;45605;-58
2022/08/27 04:29:45;;;;;;;;;3.00;3.00;;;;;24.58;42.38;101115.72;5035029;28;46384;-58
2022/08/27 04:32:11;;;;;;;;;2.00;2.00;;;;;24.57;42.80;101116.69;5034752;28;45654;-58
2022/08/27 04:34:37;;;;;;;;;3.00;3.00;;;;;24.56;42.55;101112.34;5033958;28;45257;-58
2022/08/27 04:37:03;;;;;;;;;2.50;2.50;;;;;24.54;42.88;101122.19;5033615;28;45419;-58
2022/08/27 04:39:29;;;;;;;;;3.00;3.00;;;;;24.50;42.81;101121.53;5034375;28;46297;-58
2022/08/27 04:41:57;;;;;;;;;2.75;2.25;;;;;24.50;43.15;101123.38;5034792;28;45365;-57
2022/08/27 04:44:24;;;;;;;;;2.00;0.50;;;;;24.49;42.58;101124.31;5033806;28;45451;-58
2022/08/27 04:46:56;;;;;;;;;4.75;3.25;;;;;24.46;43.02;101132.47;5035659;28;45451;-58
2022/08/27 04:49:22;;;;;;;;;5.00;3.00;;;;;24.43;42.82;101120.28;5033594;28;45514;-56
2022/08/27 04:51:48;;;;;;;;;3.25;3.25;;;;;24.42;43.12;101125.69;5035112;28;45426;-58
2022/08/27 04:54:14;;;;;;;;;3.00;3.00;;;;;24.39;43.19;101124.06;5033059;28;45399;-58
2022/08/27 04:56:40;;;;;;;;;5.00;3.00;;;;;24.38;42.97;101123.25;5034425;28;46019;-58
2022/08/27 04:59:07;;;;;;;;;3.00;3.00;;;;;24.36;42.77;101117.19;5033259;28;45541;-58
2022/08/27 05:01:34;;;;;;;;;3.00;3.00;;;;;24.36;42.70;101124.31;5032697;28;45691;-58
2022/08/27 05:04:00;;;;;;;;;3.00;3.00;;;;;24.34;43.23;101124.38;5033183;28;45278;-58
2022/08/27 05:06:26;;;;;;;;;2.00;2.00;;;;;24.32;43.54;101120.16;5033554;28;45292;-58
2022/08/27 05:08:53;;;;;;;;;3.25;3.00;;;;;24.32;42.93;101123.63;5034181;28;45386;-58
2022/08/27 05:11:19;;;;;;;;;4.25;3.00;;;;;24.31;43.49;101126.41;5034983;28;45864;-58
2022/08/27 05:13:46;;;;;;;;;3.00;3.00;;;;;24.30;42.93;101122.91;5033893;28;45851;-58
2022/08/27 05:16:19;;;;;;;;;3.00;3.00;;;;;24.26;43.26;101131.13;5033162;28;45560;-57
2022/08/27 05:18:47;;;;;;;;;2.00;2.00;;;;;24.22;43.41;101131.38;5034461;28;46465;-57
2022/08/27 05:21:23;;;;;;;;;2.00;2.00;;;;;24.20;43.32;101135.03;5033438;28;45656;-57
2022/08/27 05:23:49;;;;;;;;;3.50;3.00;;;;;24.18;43.44;101142.25;5035032;28;45232;-58
2022/08/27 05:26:15;;;;;;;;;5.00;3.25;;;;;24.15;43.44;101135.34;5032825;28;45386;-58
2022/08/27 05:28:41;;;;;;;;;5.00;3.25;;;;;24.13;43.02;101147.00;5031482;28;48648;-57
2022/08/27 05:31:09;;;;;;;;;3.50;3.25;;;;;24.12;43.50;101150.59;5033780;28;45363;-58
2022/08/27 05:33:37;;;;;;;;;3.50;3.50;;;;;24.10;43.05;101153.34;5033839;28;45899;-58
2022/08/27 05:36:04;;;;;;;;;3.25;3.25;;;;;24.07;43.58;101151.78;5033324;28;45530;-58
2022/08/27 05:38:31;;;;;;;;;4.00;3.25;;;;;24.07;43.70;101154.41;5033445;28;45435;-58
2022/08/27 05:41:07;;;;;;;;;3.25;3.00;;;;;24.09;43.47;101154.31;5033611;28;45466;-58
2022/08/27 05:43:34;;;;;;;;;2.50;2.50;;;;;24.10;43.76;101158.66;5032787;28;45426;-58
2022/08/27 05:46:04;;;;;;;;;4.00;3.00;;;;;24.11;43.65;101154.19;5033971;28;45859;-58
2022/08/27 05:48:30;;;;;;;;;5.00;3.25;;;;;24.11;43.28;101159.50;5033624;28;46338;-59
2022/08/27 05:50:56;;;;;;;;;4.00;4.00;;;;;24.08;43.26;101161.41;5032718;28;45413;-57
2022/08/27 05:53:22;;;;;;;;;4.25;3.00;;;;;24.07;43.10;101157.06;5033455;28;45375;-58
2022/08/27 05:55:47;;;;;;;;;6.50;4.00;;;;;24.06;43.50;101158.00;5034667;28;45318;-58
2022/08/27 06:01:03;;;;;;;;;3.00;3.00;;;;;24.01;43.74;101149.50;5033389;28;45776;-58
2022/08/27 06:03:29;;;;;;;;;2.50;2.50;;;;;24.02;43.83;101150.38;5032793;28;45319;-58
2022/08/27 06:06:06;;;;;;;;;2.75;2.75;;;;;24.01;43.60;101154.81;5033627;28;45394;-58
2022/08/27 06:08:31;;;;;;;;;3.75;3.00;;;;;23.99;43.47;101151.41;5032950;28;46380;-58
2022/08/27 06:11:00;;;;;;;;;2.75;2.75;;;;;23.98;43.51;101148.88;5033217;28;45494;-58
2022/08/27 06:13:26;;;;;;;;;4.00;4.00;;;;;23.98;43.76;101155.00;5032655;28;45459;-58
2022/08/27 06:16:04;;;;;;;;;4.75;3.00;;;;;23.97;43.89;101150.69;5033379;28;45390;-59
2022/08/27 06:18:30;;;;;;;;;3.75;3.00;;;;;23.95;43.61;101149.91;5032308;28;46199;-58
2022/08/27 06:20:56;;;;;;;;;3.00;3.00;;;;;23.97;43.46;101150.69;5032889;28;45922;-58
2022/08/27 06:23:22;;;;;;;;;8.00;5.00;;;;;23.96;43.47;101156.91;5032974;28;45371;-58
2022/08/27 06:25:47;;;;;;;;;4.75;4.75;;;;;23.93;43.85;101151.78;5034035;28;45362;-58
2022/08/27 06:28:12;;;;;;;;;3.75;3.00;;;;;23.92;43.26;101150.06;5032048;28;46095;-57
2022/08/27 06:30:38;;;;;;;;;5.00;2.50;;;;;23.89;43.23;101152.91;5032247;28;54591;-58
2022/08/27 06:33:03;;;;;;;;;7.25;3.00;;;;;23.85;43.25;101160.22;5031667;28;45387;-57
2022/08/27 06:35:28;;;;;;;;;5.25;4.25;;;;;23.84;43.83;101158.50;5032183;28;45731;-58
2022/08/27 06:37:54;;;;;;;;;4.00;4.00;;;;;23.86;43.72;101158.44;5032516;28;50731;-58
2022/08/27 06:40:21;;;;;;;;;4.00;3.25;;;;;23.87;43.71;101160.09;5033256;28;45387;-58
2022/08/27 06:42:46;;;;;;;;;6.00;3.25;;;;;23.87;43.52;101162.75;5033320;28;45435;-58
2022/08/27 06:45:12;;;;;;;;;3.50;3.50;;;;;23.87;43.95;101154.81;5032907;28;45549;-58
2022/08/27 06:47:37;;;;;;;;;5.75;5.75;;;;;23.87;43.53;101160.09;5032360;28;45275;-58
2022/08/27 06:50:03;;;;;;;;;4.75;4.75;;;;;23.87;43.81;101162.75;5031753;28;45360;-58
2022/08/27 06:52:28;;;;;;;;;6.00;5.00;;;;;23.88;44.11;101164.44;5032381;28;45359;-58
2022/08/27 06:54:54;;;;;;;;;5.00;4.25;;;;;23.85;43.63;101162.84;5032891;28;45285;-58
2022/08/27 06:57:22;;;;;;;;;4.50;3.50;;;;;23.84;44.01;101168.25;5032543;28;45352;-57
2022/08/27 06:59:48;;;;;;;;;6.00;5.00;;;;;23.84;44.02;101169.09;5033326;28;45842;-58
2022/08/27 07:02:13;;;;;;;;;3.50;3.50;;;;;23.83;44.03;101171.84;5032716;28;45398;-57
2022/08/27 07:04:38;;;;;;;;;4.00;4.00;;;;;23.85;44.13;101177.91;5031519;28;45368;-58
2022/08/27 07:07:04;;;;;;;;;4.75;3.75;;;;;23.84;44.08;101181.50;5032368;28;46150;-57
2022/08/27 07:09:33;;;;;;;;;6.00;4.00;;;;;23.82;43.81;101186.03;5032270;28;45808;-58
2022/08/27 07:11:59;;;;;;;;;6.25;5.00;;;;;23.83;44.22;101179.78;5030472;28;45451;-58
2022/08/27 07:14:24;;;;;;;;;4.50;3.00;;;;;23.82;44.23;101181.56;5032613;28;45390;-58
2022/08/27 07:16:51;;;;;;;;;4.00;4.00;;;;;23.82;44.29;101181.56;5032699;28;45321;-58
2022/08/27 07:19:17;;;;;;;;;5.00;4.00;;;;;23.85;44.33;101193.78;5032400;28;45406;-58
2022/08/27 07:21:42;;;;;;;;;5.00;5.00;;;;;23.84;44.16;101178.84;5032220;28;45279;-56
2022/08/27 07:24:08;;;;;;;;;7.00;4.75;;;;;23.86;44.33;101190.19;5032375;28;45567;-58
2022/08/27 07:26:36;;;;;;;;;4.25;4.00;;;;;23.88;44.10;101191.78;5030974;28;46917;-59
2022/08/27 07:29:07;;;;;;;;;6.75;5.00;;;;;23.89;44.16;101182.03;5032073;28;45221;-59
2022/08/27 07:31:34;;;;;;;;;7.00;5.00;;;;;23.90;43.99;101178.44;5032042;28;45338;-59
2022/08/27 07:34:01;;;;;;;;;5.50;3.50;;;;;23.91;44.37;101182.78;5031857;28;45534;-58
2022/08/27 07:36:27;;;;;;;;;5.75;5.50;;;;;23.90;44.25;101183.75;5031885;28;46458;-58
2022/08/27 07:38:52;;;;;;;;;7.25;4.00;;;;;23.92;43.72;101189.78;5032947;28;45209;-59
2022/08/27 07:41:18;;;;;;;;;6.50;5.00;;;;;23.92;43.70;101192.44;5035562;28;45575;-57
2022/08/27 07:46:27;;;;;;;;;7.00;5.00;;;;;23.94;43.82;101190.53;5034959;28;45316;-57
2022/08/27 07:48:56;;;;;;;;;4.50;4.25;;;;;23.91;44.14;101190.72;5034738;28;45453;-58
2022/08/27 07:51:25;;;;;;;;;5.00;5.00;;;;;23.91;43.96;101188.94;5034876;28;45248;-58
2022/08/27 07:53:50;;;;;;;;;8.00;5.00;;;;;23.92;44.33;101203.03;5035617;28;45407;-58
2022/08/27 07:56:16;;;;;;;;;7.75;6.00;;;;;23.94;44.22;101195.84;5035438;28;45332;-57
2022/08/27 07:58:42;;;;;;;;;5.25;5.25;;;;;23.96;43.86;101198.41;5035009;28;45351;-57
2022/08/27 08:01:08;;;;;;;;;7.50;6.00;;;;;23.97;44.21;101198.31;5035296;28;45413;-58
2022/08/27 08:03:34;;;;;;;;;6.00;5.25;;;;;23.98;44.00;101197.34;5034517;28;45450;-58
2022/08/27 08:06:08;;;;;;;;;5.00;5.00;;;;;24.01;44.06;101201.63;5035141;28;45364;-58
2022/08/27 08:08:35;;;;;;;;;5.75;5.25;;;;;24.00;44.06;101195.47;5034827;28;45778;-58
2022/08/27 08:11:02;;;;;;;;;6.75;4.25;;;;;23.99;44.14;101192.94;5034443;28;45446;-57
2022/08/27 08:13:29;;;;;;;;;6.25;5.75;;;;;23.99;44.06;101198.22;5035007;28;45332;-57
2022/08/27 08:15:56;;;;;;;;;6.50;5.00;;;;;24.00;44.06;101195.47;5034720;28;45938;-58
2022/08/27 08:18:21;;;;;;;;;4.25;4.25;;;;;24.02;43.68;101204.16;5033810;28;45604;-57
2022/08/27 08:20:46;;;;;;;;;4.75;4.75;;;;;24.02;43.66;101201.50;5034246;28;47141;-58
2022/08/27 08:23:12;;;;;;;;;10.75;6.00;;;;;24.04;43.58;101204.91;5033740;28;45549;-58
2022/08/27 08:25:37;;;;;;;;;5.50;4.00;;;;;24.03;44.06;101203.22;5033631;28;46286;-58
2022/08/27 08:28:03;;;;;;;;;6.25;4.75;;;;;24.06;43.55;101207.47;5034697;28;45304;-58
2022/08/27 08:30:28;;;;;;;;;4.50;4.50;;;;;24.08;43.63;101209.06;5034634;28;45186;-58
2022/08/27 08:32:53;;;;;;;;;5.75;4.50;;;;;24.10;43.96;101206.31;5034128;28;45427;-58
2022/08/27 08:35:20;;;;;;;;;8.00;5.00;;;;;24.11;44.05;101201.84;5035499;28;45436;-58
2022/08/27 08:37:45;;;;;;;;;5.00;4.25;;;;;24.13;43.74;101203.47;5035344;28;45354;-58
2022/08/27 08:40:31;;;;;;;;;7.00;4.00;;;;;24.15;44.25;101206.84;5034306;28;45530;-58
2022/08/27 08:42:58;;;;;;;;;6.50;5.00;;;;;24.17;43.95;101202.31;5033364;28;45361;-58
2022/08/27 08:45:33;;;;;;;;;6.25;5.00;;;;;24.21;43.36;101203.81;5033833;28;45447;-58
2022/08/27 08:48:10;;;;;;;;;6.25;4.50;;;;;24.21;43.75;101198.53;5033535;28;45802;-58
2022/08/27 08:50:52;;;;;;;;;5.25;5.25;;;;;24.24;43.55;101197.47;5033844;28;45321;-58
2022/08/27 08:53:36;;;;;;;;;5.00;5.00;;;;;24.25;43.35;101196.53;5035399;28;45328;-58
2022/08/27 08:56:07;;;;;;;;;4.00;4.00;;;;;24.26;43.01;101198.22;5033393;28;46253;-58
2022/08/27 08:58:40;;;;;;;;;6.00;5.00;;;;;24.25;43.13;101199.16;5034004;28;45268;-58
2022/08/27 09:01:08;;;;;;;;;6.50;5.00;;;;;24.27;42.84;101199.06;5034375;28;45331;-58
2022/08/27 09:03:39;;;;;;;;;6.75;5.00;;;;;24.26;42.30;101200.00;5048894;28;45455;-58
2022/08/27 09:06:09;;;;;;;;;4.00;4.00;;;;;24.27;42.18;101196.41;5032670;28;47307;-58
2022/08/27 09:08:42;;;;;;;;;5.00;2.75;;;;;24.26;42.29;101195.56;5034164;28;45752;-58
2022/08/27 09:11:25;;;;;;;;;5.50;4.50;;;;;24.28;42.15;101203.41;5033325;28;45268;-58
2022/08/27 09:14:00;;;;;;;;;4.75;3.25;;;;;24.29;42.00;101205.09;5034196;28;45323;-58
2022/08/27 09:16:26;;;;;;;;;3.50;3.00;;;;;24.29;41.77;101203.31;5033085;28;45503;-58
2022/08/27 09:18:52;;;;;;;;;3.00;2.75;;;;;24.30;41.52;101212.97;5033837;28;45263;-57
2022/08/27 09:21:36;;;;;;;;;3.00;3.00;;;;;24.33;41.71;101202.16;5034794;28;45296;-56
2022/08/27 09:24:12;;;;;;;;;1.50;1.50;;;;;24.36;41.64;101209.06;5034129;28;45463;-57
2022/08/27 09:26:40;;;;;;;;;4.75;3.00;;;;;24.38;41.00;101201.84;5032558;28;46097;-58
2022/08/27 09:29:16;;;;;;;;;3.50;3.50;;;;;24.43;41.07;101201.53;5033801;28;45693;-57
2022/08/27 09:31:43;;;;;;;;;3.00;3.00;;;;;24.46;41.44;101201.34;5033609;28;45379;-58
2022/08/27 09:34:08;;;;;;;;;3.00;3.00;;;;;24.48;41.33;101204.75;5033974;28;45302;-58
2022/08/27 09:36:33;;;;;;;;;8.00;4.00;;;;;24.49;41.30;101201.16;5033022;28;45450;-58
2022/08/27 09:39:04;;;;;;;;;3.25;3.25;;;;;24.49;41.37;101206.44;5033713;28;45277;-58
2022/08/27 09:41:35;;;;;;;;;6.50;4.00;;;;;24.51;41.27;101215.16;5032985;28;45357;-58
2022/08/27 09:44:07;;;;;;;;;4.00;3.75;;;;;24.52;40.72;101203.59;5033784;28;45788;-59
2022/08/27 09:46:32;;;;;;;;;4.00;3.75;;;;;24.55;40.37;101213.97;5032929;28;47429;-58
2022/08/27 09:49:09;;;;;;;;;2.75;2.75;;;;;24.55;40.49;101206.88;5033380;28;45490;-58
2022/08/27 09:51:40;;;;;;;;;4.50;4.50;;;;;24.57;40.38;101206.78;5032003;28;45399;-58
2022/08/27 09:54:07;;;;;;;;;4.50;4.00;;;;;24.57;40.70;101208.59;5032105;28;45283;-57
2022/08/27 09:56:33;;;;;;;;;3.00;3.00;;;;;24.57;40.07;101201.47;5029100;28;47255;-57
2022/08/27 09:59:05;;;;;;;;;2.75;2.75;;;;;24.59;40.44;101204.88;5031728;28;45837;-57
2022/08/27 10:01:33;;;;;;;;;4.25;3.25;;;;;24.61;39.82;101204.75;5030430;28;45446;-58
2022/08/27 10:04:06;;;;;;;;;6.25;4.00;;;;;24.61;39.84;101205.63;5031371;28;45566;-57
2022/08/27 10:06:32;;;;;;;;;3.25;3.25;;;;;24.60;40.11;101206.59;5030731;28;45478;-56
2022/08/27 10:09:46;;;;;;;;;3.00;3.00;;;;;24.62;39.20;101198.50;5031574;28;45359;-56
2022/08/27 10:12:34;;;;;;;;;5.25;4.00;;;;;24.62;39.59;101204.69;4993469;28;45531;-56
2022/08/27 10:15:01;;;;;;;;;4.00;4.00;;;;;24.65;40.00;101201.81;5012199;28;45629;-47
2022/08/27 10:18:21;;;;;;;;;4.00;4.00;;;;;24.69;39.67;101198.03;5011337;28;46165;-55
2022/08/27 10:21:02;;;;;;;;;3.00;3.00;;;;;24.73;39.62;101208.44;4979033;28;45453;-56
2022/08/27 10:23:46;;;;;;;;;4.00;4.00;;;;;24.76;39.98;101202.91;5011602;28;45334;-56
2022/08/27 10:26:23;;;;;;;;;4.50;3.50;;;;;24.75;39.59;101202.06;5017714;28;45324;-54
2022/08/27 10:29:10;;;;;;;;;4.50;4.00;;;;;24.74;39.14;101200.38;5032118;28;45223;-54
2022/08/27 10:31:51;;;;;;;;;3.00;3.00;;;;;24.73;39.80;101182.78;5031076;28;45273;-48
2022/08/27 10:34:22;;;;;;;;;5.00;5.00;;;;;24.74;39.28;101196.88;5032257;28;45390;-48
2022/08/27 10:36:56;;;;;;;;;4.25;4.25;;;;;24.75;39.84;101203.88;5032430;28;45507;-52
2022/08/27 10:39:33;;;;;;;;;3.50;3.00;;;;;24.74;39.45;101189.78;5030977;28;45653;-56
2022/08/27 10:42:18;;;;;;;;;5.00;4.00;;;;;24.78;39.81;101196.56;5030564;28;45429;-57
2022/08/27 10:45:11;;;;;;;;;5.25;4.75;;;;;24.82;39.77;101194.56;5031112;28;45319;-57
2022/08/27 10:47:47;;;;;;;;;4.00;4.00;;;;;24.83;39.55;101188.31;5031346;28;45365;-51
2022/08/27 10:50:36;;;;;;;;;6.00;4.25;;;;;24.85;39.96;101191.69;4990730;28;1161900;-54
2022/08/27 10:53:09;;;;;;;;;4.00;3.00;;;;;24.84;39.49;101180.22;5032568;28;45662;-55
2022/08/27 10:55:40;;;;;;;;;6.00;4.00;;;;;24.86;39.59;101188.06;5032080;28;45967;-54
2022/08/27 10:58:11;;;;;;;;;5.00;3.50;;;;;24.88;39.42;101188.81;5031514;28;45526;-51
2022/08/27 11:01:05;;;;;;;;;6.00;4.50;;;;;24.89;39.52;101177.25;5032012;28;45368;-53
2022/08/27 11:03:43;;;;;;;;;8.00;4.75;;;;;24.91;39.32;101171.88;5032130;28;45915;-50
2022/08/27 11:06:53;;;;;;;;;4.50;4.50;;;;;24.91;39.33;101179.84;5031049;28;45345;-52
2022/08/27 11:09:25;;;;;;;;;3.75;3.75;;;;;24.92;39.14;101170.91;5033478;28;45353;-53
2022/08/27 11:11:57;;;;;;;;;4.25;3.50;;;;;24.93;39.24;101165.50;5030215;28;46401;-50
2022/08/27 11:14:42;;;;;;;;;2.00;1.00;;;;;24.93;39.17;101168.16;5033909;28;45594;-51
2022/08/27 11:17:16;;;;;;;;;3.00;3.00;;;;;24.95;38.56;101166.25;5004769;28;45424;-48
2022/08/27 11:20:20;;;;;;;;;3.50;3.50;;;;;24.95;38.71;101160.94;5035816;28;45388;-49
2022/08/27 11:22:55;;;;;;;;;4.75;4.00;;;;;24.97;38.74;101159.00;5034394;28;46294;-53
2022/08/27 11:25:20;;;;;;;;;3.25;3.00;;;;;24.98;38.74;101154.56;5034931;28;45321;-55
2022/08/27 11:27:50;;;;;;;;;4.50;4.00;;;;;24.99;38.21;101146.50;5036609;28;45323;-54
2022/08/27 11:30:46;;;;;;;;;4.75;4.50;;;;;25.01;38.70;101149.91;5036931;28;45530;-49
2022/08/27 11:33:49;;;;;;;;;7.50;4.50;;;;;25.02;37.99;101153.41;5027962;28;45330;-55
2022/08/27 11:36:30;;;;;;;;;4.00;4.00;;;;;25.03;38.40;101143.66;5013340;28;46102;-58
2022/08/27 11:39:11;;;;;;;;;5.00;4.00;;;;;25.05;38.36;101141.75;5035544;28;45753;-59
2022/08/27 11:42:06;;;;;;;;;6.75;4.50;;;;;25.05;38.31;101139.94;5034709;28;45464;-58